Flight Track Log - Related Links

Times and Time Zones

All times are in EDT time to prevent confusion due to time zone crossing. See the UPS2916 flight status page for this flight to view local times or setup timezone preferences in your user account.

Time Position Orientation Groundspeed Altitude Reporting Facility
EDT Latitude Longitude Course Direction KTS MPH feet Rate Location/Type
Fri 04:15:59 PM 38.1710 -85.7410 258° West 13 15  Level FlightAware ADS-B
Fri 04:17:15 PM 38.1670 -85.7410 180° South 27 31 195 Level FlightAware ADS-B
Fri 04:17:44 PM 38.1670 -85.7400 90° East 25 29 246 Level FlightAware ADS-B
Fri 04:18:12 PM 38.1640 -85.7390 165° South 26 30 273 Level FlightAware ADS-B
Fri 04:18:50 PM 38.1610 -85.7390 180° South 31 36 305 Level FlightAware ADS-B
Fri 04:21:00 PM 38.0667 -85.8797 270° West  Level FlightAware Approximate
Fri 04:22:00 PM 38.0248 -86.0067 234° Southwest  Level FlightAware Approximate
Fri 04:22:08 PM 38.1880 -85.7490 234° Southwest 166 191 1,200  Level FlightAware ADS-B
Fri 04:22:38 PM 38.2090 -85.7590 339° North 184 212 2,300 1,821 Climbing FlightAware ADS-B
Fri 04:23:04 PM 38.2310 -85.7750 330° Northwest 228 262 2,900 1,737 Climbing FlightAware ADS-B
Fri 04:23:16 PM 38.2430 -85.7830 332° Northwest 239 275 3,400 2,850 Climbing FlightAware ADS-B
Fri 04:23:44 PM 38.2700 -85.8040 329° Northwest 251 289 4,800 2,727 Climbing FlightAware ADS-B
Fri 04:24:00 PM 38.2820 -85.8250 306° West 273 314 5,400 2,571 Climbing FlightAware ADS-B
Fri 04:24:12 PM 38.2840 -85.8440 278° West 277 319 6,000 3,571 Climbing FlightAware ADS-B
Fri 04:24:42 PM 38.2710 -85.8910 251° West 286 329 7,900 3,522 Climbing FlightAware ADS-B
Fri 04:24:58 PM 38.2640 -85.9150 250° West 295 339 8,700 3,000 Climbing FlightAware ADS-B
Fri 04:25:40 PM 38.2520 -85.9880 258° West 310 357 10,800 2,154 Climbing FlightAware ADS-B
Fri 04:26:16 PM 38.2400 -86.0570 258° West 360 414 11,500 2,415 Climbing FlightAware ADS-B
Fri 04:27:02 PM 38.2210 -86.1570 256° West 370 426 14,100 3,200 Climbing FlightAware ADS-B
Fri 04:27:46 PM 38.2040 -86.2520 257° West 382 440 16,300 2,883 Climbing FlightAware ADS-B
Fri 04:28:19 PM 38.1920 -86.3230 258° West 389 448 17,800 1,111 Climbing FlightAware ADS-B
Fri 04:29:07 PM 38.1770 -86.4140 258° West 389 448 17,800 2,660 Level FlightAware ADS-B
Fri 04:30:05 PM 38.1500 -86.5650 257° West 410 472 22,500 3,152 Climbing FlightAware ADS-B
Fri 04:30:46 PM 38.1320 -86.6640 257° West 418 481 23,000 987 Climbing FlightAware ADS-B
Fri 04:31:24 PM 38.1150 -86.7550 257° West 417 480 23,800 1,694 Climbing FlightAware ADS-B
Fri 04:32:11 PM 38.0940 -86.8710 257° West 430 495 25,400 2,090 Climbing FlightAware ADS-B
Fri 04:32:53 PM 38.0760 -86.9730 257° West 436 502 26,900 1,976 Climbing FlightAware ADS-B
Fri 04:33:33 PM 38.0570 -87.0740 257° West 445 512 28,100 1,663 Climbing FlightAware ADS-B
Fri 04:34:16 PM 38.0370 -87.1840 257° West 456 525 29,200 1,800 Climbing FlightAware ADS-B
Fri 04:34:53 PM 38.0190 -87.2820 257° West 456 525 30,500 1,952 Climbing FlightAware ADS-B
Fri 04:35:39 PM 37.9970 -87.4010 257° West 451 519 31,900 1,023 Climbing FlightAware ADS-B
Fri 04:36:21 PM 37.9810 -87.5090 259° West 446 513 32,000 70 Climbing FlightAware ADS-B
Fri 04:37:05 PM 37.9680 -87.6220 262° West 449 517 32,000  Level FlightAware ADS-B
Fri 04:37:47 PM 37.9580 -87.7330 264° West 451 519 32,000 628 Level FlightAware ADS-B
Fri 04:38:31 PM 37.9460 -87.8460 262° West 442 509 32,900 1,244 Climbing FlightAware ADS-B
Fri 04:39:09 PM 37.9370 -87.9430 263° West 446 513 33,700 825 Climbing FlightAware ADS-B
Fri 04:39:51 PM 37.9250 -88.0520 262° West 449 517 34,000 205 Climbing FlightAware ADS-B
Fri 04:40:37 PM 37.9130 -88.1660 262° West 443 510 34,000  Level FlightAware ADS-B
Fri 04:41:17 PM 37.9020 -88.2740 263° West 435 501 34,000  Level FlightAware ADS-B
Fri 04:41:55 PM 37.8910 -88.3710 262° West 432 497 34,000  Level FlightAware ADS-B
Fri 04:42:43 PM 37.8780 -88.4880 262° West 427 491 34,000  Level FlightAware ADS-B
Fri 04:43:23 PM 37.8670 -88.5890 262° West 426 490 34,000  Level FlightAware ADS-B
Fri 04:44:05 PM 37.8560 -88.6890 262° West 427 491 34,000  Level FlightAware ADS-B
Fri 04:44:48 PM 37.8440 -88.7950 262° West 426 490 34,000  Level FlightAware ADS-B
Fri 04:45:45 PM 37.8290 -88.9200 261° West 426 490 34,000  Level FlightAware ADS-B
Fri 04:46:21 PM 37.8200 -88.9950 261° West 426 490 34,000  Level FlightAware ADS-B
Fri 04:47:09 PM 37.8070 -89.0960 261° West 426 490 34,000  Level FlightAware ADS-B
Fri 04:47:46 PM 37.7980 -89.1730 262° West 426 490 34,000  Level FlightAware ADS-B
Fri 04:48:24 PM 37.7880 -89.2530 261° West 426 490 34,000  Level FlightAware ADS-B
Fri 04:49:13 PM 37.7750 -89.3550 261° West 426 490 34,000  Level FlightAware ADS-B
Fri 04:49:52 PM 37.7650 -89.4370 261° West 426 490 34,000  Level FlightAware ADS-B
Fri 04:51:01 PM 37.7470 -89.5810 261° West 426 490 34,000  Level FlightAware ADS-B
Fri 04:51:48 PM 37.7340 -89.6800 261° West 426 490 34,000  Level FlightAware ADS-B
Fri 04:52:25 PM 37.7250 -89.7570 262° West 426 490 34,000  Level FlightAware ADS-B
Fri 04:53:05 PM 37.7140 -89.8410 261° West 426 490 34,000  Level FlightAware ADS-B
Fri 04:53:53 PM 37.7010 -89.9410 261° West 426 490 34,000  Level FlightAware ADS-B
Fri 04:54:30 PM 37.6920 -90.0190 262° West 426 490 34,000  Level FlightAware ADS-B
Fri 04:55:15 PM 37.6800 -90.1130 261° West 426 490 34,000  Level FlightAware ADS-B
Fri 04:56:08 PM 37.6547 -90.4872 261° West 437 503 34,000 16 Level Kansas City Center
Fri 05:01:30 PM 37.7930 -91.3100 261° West 435 501 34,100  Climbing FlightAware ADS-B
Fri 05:02:18 PM 37.8180 -91.4280 285° West 437 503 34,000 -73 Descending FlightAware ADS-B
Fri 05:02:52 PM 37.8270 -91.5160 277° West 440 506 34,000 73 Level FlightAware ADS-B
Fri 05:03:40 PM 37.8180 -91.6360 265° West 444 511 34,100 65 Climbing FlightAware ADS-B
Fri 05:04:24 PM 37.8070 -91.7520 263° West 447 514 34,100 -69 Level FlightAware ADS-B
Fri 05:05:07 PM 37.7960 -91.8600 263° West 448 516 34,000  Descending FlightAware ADS-B
Fri 05:05:48 PM 37.7850 -91.9670 263° West 449 517 34,100 74 Climbing FlightAware ADS-B
Fri 05:06:28 PM 37.7740 -92.0740 263° West 451 519 34,100 -77 Level FlightAware ADS-B
Fri 05:07:06 PM 37.7640 -92.1720 263° West 451 519 34,000 -70 Descending FlightAware ADS-B
Fri 05:07:54 PM 37.7510 -92.2980 263° West 452 520 34,000  Level FlightAware ADS-B
Fri 05:08:36 PM 37.7390 -92.4070 262° West 452 520 34,000  Level FlightAware ADS-B
Fri 05:09:18 PM 37.7270 -92.5170 262° West 452 520 34,000 71 Level FlightAware ADS-B
Fri 05:10:00 PM 37.7160 -92.6270 263° West 452 520 34,100  Climbing FlightAware ADS-B
Fri 05:10:56 PM 37.7000 -92.7720 262° West 451 519 34,000 -60 Descending FlightAware ADS-B
Fri 05:11:40 PM 37.6870 -92.8860 262° West 450 518 34,000  Level FlightAware ADS-B
Fri 05:12:16 PM 37.6770 -92.9800 262° West 449 517 34,000  Level FlightAware ADS-B
Fri 05:13:16 PM 37.6590 -93.1370 262° West 448 516 34,000 61 Level FlightAware ADS-B
Fri 05:13:54 PM 37.6480 -93.2330 262° West 446 513 34,100 71 Climbing FlightAware ADS-B
Fri 05:14:40 PM 37.6350 -93.3540 262° West 446 513 34,100  Level FlightAware ADS-B
Fri 05:15:22 PM 37.6230 -93.4590 262° West 444 511 34,100 -71 Level FlightAware ADS-B
Fri 05:16:04 PM 37.5980 -93.5630 253° West 442 509 34,000  Descending FlightAware ADS-B
Fri 05:16:46 PM 37.5570 -93.6560 241° Southwest 441 507 34,100  Climbing FlightAware ADS-B
Fri 05:17:28 PM 37.5160 -93.7520 242° Southwest 441 507 34,000 -71 Descending FlightAware ADS-B
Fri 05:18:11 PM 37.4780 -93.8500 244° Southwest 441 507 34,000  Level FlightAware ADS-B
Fri 05:18:52 PM 37.4580 -93.9530 256° West 438 504 34,000 78 Level FlightAware ADS-B
Fri 05:19:28 PM 37.4470 -94.0440 261° West 439 505 34,100 71 Climbing FlightAware ADS-B
Fri 05:20:16 PM 37.4340 -94.1620 262° West 439 505 34,100 -68 Level FlightAware ADS-B
Fri 05:20:56 PM 37.4220 -94.2650 262° West 438 504 34,000  Descending FlightAware ADS-B
Fri 05:21:40 PM 37.4110 -94.3650 262° West 438 504 34,100 68 Climbing FlightAware ADS-B
Fri 05:22:24 PM 37.3970 -94.4860 262° West 437 503 34,100  Level FlightAware ADS-B
Fri 05:23:02 PM 37.3860 -94.5780 261° West 437 503 34,100  Level FlightAware ADS-B
Fri 05:23:48 PM 37.3730 -94.6980 262° West 437 503 34,100 -72 Level FlightAware ADS-B
Fri 05:24:25 PM 37.3660 -94.7510 261° West 436 502 34,000 -73 Descending FlightAware ADS-B
Fri 05:25:10 PM 37.3480 -94.9020 262° West 435 501 34,000 71 Level FlightAware ADS-B
Fri 05:25:50 PM 37.3360 -95.0020 261° West 433 498 34,100  Climbing FlightAware ADS-B
Fri 05:26:34 PM 37.3230 -95.1130 262° West 432 497 34,000 -71 Descending FlightAware ADS-B
Fri 05:27:14 PM 37.3110 -95.2110 261° West 432 497 34,000 71 Level FlightAware ADS-B
Fri 05:27:58 PM 37.2980 -95.3200 262° West 432 497 34,100 71 Climbing FlightAware ADS-B
Fri 05:28:38 PM 37.2860 -95.4170 261° West 432 497 34,100 -71 Level FlightAware ADS-B
Fri 05:29:22 PM 37.2720 -95.5290 261° West 432 497 34,000 -68 Descending FlightAware ADS-B
Fri 05:30:06 PM 37.2580 -95.6370 261° West 431 496 34,000 54 Level FlightAware ADS-B
Fri 05:31:13 PM 37.2390 -95.7940 261° West 431 496 34,100  Climbing FlightAware ADS-B
Fri 05:31:52 PM 37.2260 -95.8960 261° West 431 496 34,000  Descending FlightAware ADS-B
Fri 05:32:34 PM 37.2130 -95.9980 261° West 431 496 34,100 68 Climbing FlightAware ADS-B
Fri 05:33:20 PM 37.1970 -96.1140 260° West 431 496 34,100 -68 Level FlightAware ADS-B
Fri 05:34:02 PM 37.1840 -96.2170 261° West 430 495 34,000  Descending FlightAware ADS-B
Fri 05:34:43 PM 37.1710 -96.3170 261° West 429 494 34,100 77 Climbing FlightAware ADS-B
Fri 05:35:20 PM 37.1590 -96.4090 261° West 429 494 34,100 -71 Level FlightAware ADS-B
Fri 05:36:08 PM 37.1430 -96.5280 260° West 430 495 34,000  Descending FlightAware ADS-B
Fri 05:36:50 PM 37.1290 -96.6310 260° West 431 496 34,100 72 Climbing FlightAware ADS-B
Fri 05:37:31 PM 37.1160 -96.7300 261° West 430 495 34,100 -75 Level FlightAware ADS-B
Fri 05:38:10 PM 37.1030 -96.8270 260° West 430 495 34,000 -69 Descending FlightAware ADS-B
Fri 05:38:58 PM 37.0870 -96.9440 260° West 430 495 34,000 70 Level FlightAware ADS-B
Fri 05:39:36 PM 37.0740 -97.0370 260° West 430 495 34,100 54 Climbing FlightAware ADS-B
Fri 05:40:49 PM 37.0510 -97.2050 260° West 429 494 34,100  Level FlightAware ADS-B
Fri 05:41:30 PM 37.0350 -97.3150 260° West 427 491 34,100 -72 Level FlightAware ADS-B
Fri 05:42:12 PM 37.0210 -97.4180 260° West 425 489 34,000  Descending FlightAware ADS-B
Fri 05:42:55 PM 37.0060 -97.5180 259° West 422 486 34,100  Climbing FlightAware ADS-B
Fri 05:43:38 PM 36.9920 -97.6220 260° West 420 483 34,000 -71 Descending FlightAware ADS-B
Fri 05:44:19 PM 36.9780 -97.7200 260° West 419 482 34,000 75 Level FlightAware ADS-B
Fri 05:44:58 PM 36.9640 -97.8140 259° West 417 480 34,100 63 Climbing FlightAware ADS-B
Fri 05:45:54 PM 36.9510 -97.8990 259° West 416 479 34,100 -60 Level FlightAware ADS-B
Fri 05:46:38 PM 36.9300 -98.0470 260° West 415 478 34,000  Descending FlightAware ADS-B
Fri 05:47:30 PM 36.9110 -98.1710 259° West 415 478 34,100  Climbing FlightAware ADS-B
Fri 05:48:12 PM 36.8970 -98.2690 260° West 415 478 34,000  Descending FlightAware ADS-B
Fri 05:48:56 PM 36.8810 -98.3730 259° West 416 479 34,100 71 Climbing FlightAware ADS-B
Fri 05:49:36 PM 36.8680 -98.4580 259° West 417 480 34,100  Level FlightAware ADS-B
Fri 05:50:29 PM 36.8520 -98.5640 259° West 417 480 34,100  Level FlightAware ADS-B
Fri 05:51:17 PM 36.8370 -98.6610 259° West 417 480 34,100  Level FlightAware ADS-B
Fri 05:51:53 PM 36.8250 -98.7330 258° West 417 480 34,100  Level FlightAware ADS-B
Fri 05:52:44 PM 36.8090 -98.8360 259° West 417 480 34,100  Level FlightAware ADS-B
Fri 05:53:20 PM 36.7980 -98.9080 259° West 417 480 34,100  Level FlightAware ADS-B
Fri 05:54:09 PM 36.7830 -99.0070 259° West 417 480 34,100 -102 Level FlightAware ADS-B
Fri 05:54:19 PM 36.7632 -99.1426 260° West 425 489 34,000  Descending FlightAware ADS-B
Fri 05:55:27 PM 36.7580 -99.1640 253° West 417 480 34,100 52 Climbing FlightAware ADS-B
Fri 05:56:15 PM 36.7430 -99.2600 259° West 417 480 34,100  Level FlightAware ADS-B
Fri 05:56:50 PM 36.7320 -99.3300 259° West 417 480 34,100  Level FlightAware ADS-B
Fri 05:57:37 PM 36.7180 -99.4250 260° West 417 480 34,100 -100 Level FlightAware ADS-B
Fri 05:57:50 PM 36.6819 -99.6527 259° West 432 497 34,000  Descending FlightAware ADS-B
Fri 05:58:21 PM 36.6698 -99.7278 259° West 431 496 34,100  Climbing FlightAware ADS-B
Fri 05:58:52 PM 36.6579 -99.8014 259° West 433 498 34,000 -88 Descending FlightAware ADS-B
Fri 05:59:29 PM 36.6428 -99.8926 258° West 433 498 34,000 72 Level FlightAware ADS-B
Fri 06:00:15 PM 36.6244 -100.0050 259° West 433 498 34,100 78 Climbing FlightAware ADS-B
Fri 06:00:46 PM 36.6119 -100.0810 258° West 433 498 34,100 -97 Level FlightAware ADS-B
Fri 06:01:17 PM 36.5997 -100.1550 258° West 434 499 34,000 -98 Descending FlightAware ADS-B
Fri 06:01:47 PM 36.5872 -100.2300 258° West 434 499 34,000 98 Level FlightAware ADS-B
Fri 06:02:18 PM 36.5749 -100.3030 258° West 433 498 34,100 97 Climbing FlightAware ADS-B
Fri 06:02:49 PM 36.5618 -100.3810 258° West 434 499 34,100  Level FlightAware ADS-B
Fri 06:03:20 PM 36.5491 -100.4560 258° West 434 499 34,100 98 Level FlightAware ADS-B
Fri 06:03:50 PM 36.5367 -100.5300 258° West 435 501 34,200 857 Climbing FlightAware ADS-B
Fri 06:04:23 PM 36.5230 -100.6100 258° West 432 497 35,000 1,143 Climbing FlightAware ADS-B
Fri 06:05:14 PM 36.5019 -100.7330 258° West 433 498 35,800 674 Climbing FlightAware ADS-B
Fri 06:05:52 PM 36.4865 -100.8230 258° West 425 489 36,000 176 Climbing FlightAware ADS-B
Fri 06:06:22 PM 36.4742 -100.8950 258° West 423 487 36,000  Level FlightAware ADS-B
Fri 06:06:53 PM 36.4616 -100.9670 258° West 422 486 36,000  Level FlightAware ADS-B
Fri 06:07:23 PM 36.4492 -101.0380 258° West 422 486 36,000 100 Level FlightAware ADS-B
Fri 06:07:53 PM 36.4368 -101.1090 258° West 423 487 36,100 100 Climbing FlightAware ADS-B
Fri 06:08:23 PM 36.4243 -101.1810 258° West 425 489 36,100  Level FlightAware ADS-B
Fri 06:08:53 PM 36.4116 -101.2530 258° West 426 490 36,100 -95 Level FlightAware ADS-B
Fri 06:09:26 PM 36.3978 -101.3310 258° West 427 491 36,000  Descending FlightAware ADS-B
Fri 06:09:56 PM 36.3849 -101.4040 258° West 428 493 36,100 98 Climbing FlightAware ADS-B
Fri 06:10:27 PM 36.3718 -101.4770 257° West 430 495 36,100  Level FlightAware ADS-B
Fri 06:10:59 PM 36.3583 -101.5530 258° West 431 496 36,100  Level FlightAware ADS-B
Fri 06:11:29 PM 36.3451 -101.6270 258° West 431 496 36,100 -100 Level FlightAware ADS-B
Fri 06:11:59 PM 36.3319 -101.6990 257° West 431 496 36,000 -150 Descending FlightAware ADS-B
Fri 06:12:09 PM 36.3258 -101.7220 252° West 431 496 36,000  Level FlightAware ADS-B
Fri 06:12:23 PM 36.3135 -101.7530 244° Southwest 430 495 36,000 136 Level FlightAware ADS-B
Fri 06:12:53 PM 36.2814 -101.8150 237° Southwest 429 494 36,100 98 Climbing FlightAware ADS-B
Fri 06:13:24 PM 36.2487 -101.8790 238° Southwest 429 494 36,100 -98 Level FlightAware ADS-B
Fri 06:13:54 PM 36.2171 -101.9420 238° Southwest 429 494 36,000 -97 Descending FlightAware ADS-B
Fri 06:14:26 PM 36.1836 -102.0070 237° Southwest 428 493 36,000  Level FlightAware ADS-B
Fri 06:14:58 PM 36.1500 -102.0730 238° Southwest 428 493 36,000  Level FlightAware ADS-B
Fri 06:15:29 PM 36.1168 -102.1370 237° Southwest 427 491 36,000  Level FlightAware ADS-B
Fri 06:16:00 PM 36.0836 -102.2010 237° Southwest 426 490 36,000  Level FlightAware ADS-B
Fri 06:16:31 PM 36.0505 -102.2640 237° Southwest 426 490 36,000 97 Level FlightAware ADS-B
Fri 06:17:02 PM 36.0176 -102.3270 237° Southwest 425 489 36,100 97 Climbing FlightAware ADS-B
Fri 06:17:33 PM 35.9842 -102.3890 236° Southwest 427 491 36,100 -85 Level FlightAware ADS-B
Fri 06:18:13 PM 35.9405 -102.4700 236° Southwest 427 491 36,000 -86 Descending FlightAware ADS-B
Fri 06:18:43 PM 35.9075 -102.5310 236° Southwest 428 493 36,000 98 Level FlightAware ADS-B
Fri 06:19:14 PM 35.8734 -102.5940 236° Southwest 428 493 36,100 97 Climbing FlightAware ADS-B
Fri 06:19:45 PM 35.8391 -102.6580 237° Southwest 429 494 36,100  Level FlightAware ADS-B
Fri 06:20:17 PM 35.8048 -102.7210 236° Southwest 430 495 36,100 -95 Level FlightAware ADS-B
Fri 06:20:48 PM 35.7701 -102.7860 237° Southwest 430 495 36,000 -98 Descending FlightAware ADS-B
Fri 06:21:18 PM 35.7369 -102.8470 236° Southwest 431 496 36,000  Level FlightAware ADS-B
Fri 06:21:48 PM 35.7038 -102.9080 236° Southwest 431 496 36,000  Level FlightAware ADS-B
Fri 06:22:19 PM 35.6698 -102.9710 236° Southwest 431 496 36,000  Level FlightAware ADS-B
Fri 06:22:38 PM 35.6488 -103.0100 236° Southwest 432 497 36,000  Level FlightAware ADS-B
Fri 06:23:10 PM 35.6129 -103.0730 235° Southwest 432 497 36,000  Level FlightAware ADS-B
Fri 06:23:39 PM 35.5788 -103.1320 235° Southwest 432 497 36,000 100 Level FlightAware ADS-B
Fri 06:24:10 PM 35.5412 -103.1910 232° Southwest 432 497 36,100 97 Climbing FlightAware ADS-B
Fri 06:24:41 PM 35.5026 -103.2500 231° Southwest 434 499 36,100 -125 Level FlightAware ADS-B
Fri 06:24:58 PM 35.4808 -103.2840 232° Southwest 433 498 36,000 -207 Descending FlightAware ADS-B
Fri 06:25:10 PM 35.4688 -103.3090 239° Southwest 431 496 36,000  Level FlightAware ADS-B
Fri 06:25:14 PM 35.4653 -103.3180 244° Southwest 431 496 36,000  Level FlightAware ADS-B
Fri 06:25:29 PM 35.4561 -103.3530 252° West 429 494 36,000  Level FlightAware ADS-B
Fri 06:25:37 PM 35.4533 -103.3720 260° West 428 493 36,000  Level FlightAware ADS-B
Fri 06:25:47 PM 35.4519 -103.3950 266° West 427 491 36,000  Level FlightAware ADS-B
Fri 06:25:55 PM 35.4524 -103.4140 272° West 427 491 36,000  Level FlightAware ADS-B
Fri 06:26:10 PM 35.4575 -103.4510 280° West 427 491 36,000 133 Level FlightAware ADS-B
Fri 06:26:40 PM 35.4730 -103.5220 285° West 427 491 36,100  Climbing FlightAware ADS-B
Fri 06:27:13 PM 35.4902 -103.5980 286° West 427 491 36,000 -92 Descending FlightAware ADS-B
Fri 06:27:45 PM 35.5062 -103.6710 285° West 428 493 36,000 109 Level FlightAware ADS-B
Fri 06:28:08 PM 35.5187 -103.7260 286° West 429 494 36,100  Climbing FlightAware ADS-B
Fri 06:28:18 PM 35.5250 -103.7480 289° West 430 495 36,000  Descending FlightAware ADS-B
Fri 06:28:50 PM 35.5533 -103.8180 296° West 430 495 36,100  Climbing FlightAware ADS-B
Fri 06:29:21 PM 35.5809 -103.8860 297° West 430 495 36,000 -98 Descending FlightAware ADS-B
Fri 06:29:51 PM 35.6075 -103.9530 296° West 429 494 36,000  Level FlightAware ADS-B
Fri 06:30:21 PM 35.6328 -104.0190 295° West 429 494 36,000  Level FlightAware ADS-B
Fri 06:30:52 PM 35.6583 -104.0880 294° West 431 496 36,000  Level FlightAware ADS-B
Fri 06:31:26 PM 35.6852 -104.1630 294° West 431 496 36,000  Level FlightAware ADS-B
Fri 06:31:57 PM 35.7113 -104.2320 295° West 434 499 36,000 98 Level FlightAware ADS-B
Fri 06:32:27 PM 35.7370 -104.2990 295° West 435 501 36,100  Climbing FlightAware ADS-B
Fri 06:33:04 PM 35.7541 -104.3880 283° West 435 501 36,000  Descending FlightAware ADS-B
Fri 06:33:32 PM 35.7497 -104.4570 266° West 433 498 36,100  Climbing FlightAware ADS-B
Fri 06:34:04 PM 35.7433 -104.5340 264° West 434 499 36,000 -97 Descending FlightAware ADS-B
Fri 06:34:34 PM 35.7359 -104.6090 263° West 435 501 36,000  Level FlightAware ADS-B
Fri 06:35:46 PM 35.7208 -104.7597 263° West 439 505 36,000 45 Level Albuquerque Center
Fri 06:36:47 PM 35.7058 -104.9103 263° West 443 510 36,100 15 Climbing Albuquerque Center
Fri 06:42:32 PM 35.6140 -105.8040 263° West 448 516 36,100 -16 Level FlightAware ADS-B
Fri 06:43:12 PM 35.6030 -105.9070 263° West 449 517 36,000 -74 Descending FlightAware ADS-B
Fri 06:43:53 PM 35.5910 -106.0090 262° West 446 513 36,000  Level FlightAware ADS-B
Fri 06:44:37 PM 35.5790 -106.1200 262° West 445 512 36,000  Level FlightAware ADS-B
Fri 06:45:13 PM 35.5690 -106.2100 262° West 446 513 36,000  Level FlightAware ADS-B
Fri 06:46:03 PM 35.5550 -106.3370 262° West 447 514 36,000  Level FlightAware ADS-B
Fri 06:46:41 PM 35.5450 -106.4310 263° West 446 513 36,000 73 Level FlightAware ADS-B
Fri 06:47:25 PM 35.5320 -106.5410 262° West 443 510 36,100  Climbing FlightAware ADS-B
Fri 06:48:05 PM 35.5210 -106.6410 262° West 442 509 36,000 -73 Descending FlightAware ADS-B
Fri 06:48:47 PM 35.5090 -106.7440 262° West 439 505 36,000  Level FlightAware ADS-B
Fri 06:49:32 PM 35.4970 -106.8520 262° West 436 502 36,000  Level FlightAware ADS-B
Fri 06:50:15 PM 35.4840 -106.9580 261° West 432 497 36,000 72 Level FlightAware ADS-B
Fri 06:50:55 PM 35.4730 -107.0560 262° West 431 496 36,100  Climbing FlightAware ADS-B
Fri 06:51:51 PM 35.4570 -107.1890 262° West 425 489 36,000 -65 Descending FlightAware ADS-B
Fri 06:52:27 PM 35.4470 -107.2750 262° West 423 487 36,000 73 Level FlightAware ADS-B
Fri 06:53:13 PM 35.4330 -107.3850 261° West 420 483 36,100 68 Climbing FlightAware ADS-B
Fri 06:53:55 PM 35.4240 -107.4620 262° West 419 482 36,100 -70 Level FlightAware ADS-B
Fri 06:54:39 PM 35.4090 -107.5860 262° West 422 486 36,000  Descending FlightAware ADS-B
Fri 06:55:16 PM 35.3980 -107.6720 261° West 423 487 36,100  Climbing FlightAware ADS-B
Fri 06:56:17 PM 35.3810 -107.8140 262° West 420 483 36,000 -59 Descending FlightAware ADS-B
Fri 06:56:57 PM 35.3700 -107.9030 261° West 418 481 36,000 73 Level FlightAware ADS-B
Fri 06:57:39 PM 35.3570 -108.0060 261° West 420 483 36,100 65 Climbing FlightAware ADS-B
Fri 06:58:29 PM 35.3440 -108.1060 261° West 420 483 36,100  Level FlightAware ADS-B
Fri 06:59:06 PM 35.3340 -108.1800 261° West 420 483 36,100  Level FlightAware ADS-B
Fri 06:59:52 PM 35.3220 -108.2720 261° West 420 483 36,100  Level FlightAware ADS-B
Fri 07:00:29 PM 35.3130 -108.3460 262° West 420 483 36,100  Level FlightAware ADS-B
Fri 07:01:08 PM 35.3030 -108.4240 261° West 420 483 36,100  Level FlightAware ADS-B
Fri 07:01:56 PM 35.2900 -108.5200 261° West 420 483 36,100  Level FlightAware ADS-B
Fri 07:02:32 PM 35.2810 -108.5920 261° West 420 483 36,100  Level FlightAware ADS-B
Fri 07:03:20 PM 35.2680 -108.6880 261° West 420 483 36,100 -67 Level FlightAware ADS-B
Fri 07:04:02 PM 35.2390 -108.9080 261° West 418 481 36,000  Descending FlightAware ADS-B
Fri 07:04:42 PM 35.2270 -109.0000 261° West 415 478 36,100  Climbing FlightAware ADS-B
Fri 07:05:26 PM 35.2130 -109.1010 260° West 415 478 36,000 -70 Descending FlightAware ADS-B
Fri 07:06:08 PM 35.2000 -109.2000 261° West 414 476 36,000  Level FlightAware ADS-B
Fri 07:06:52 PM 35.1860 -109.3010 260° West 414 476 36,000  Level FlightAware ADS-B
Fri 07:07:32 PM 35.1740 -109.3910 261° West 414 476 36,000 71 Level FlightAware ADS-B
Fri 07:08:16 PM 35.1590 -109.4940 260° West 414 476 36,100 73 Climbing FlightAware ADS-B
Fri 07:08:54 PM 35.1470 -109.5840 261° West 414 476 36,100  Level FlightAware ADS-B
Fri 07:09:40 PM 35.1320 -109.6880 260° West 414 476 36,100 -70 Level FlightAware ADS-B
Fri 07:10:20 PM 35.1190 -109.7800 260° West 414 476 36,000  Descending FlightAware ADS-B
Fri 07:11:00 PM 35.1060 -109.8720 260° West 416 479 36,100 71 Climbing FlightAware ADS-B
Fri 07:11:45 PM 35.0910 -109.9750 260° West 417 480 36,100 -74 Level FlightAware ADS-B
Fri 07:12:21 PM 35.0830 -110.0350 261° West 417 480 36,000 -78 Descending FlightAware ADS-B
Fri 07:13:02 PM 35.0660 -110.1530 260° West 417 480 36,000  Level FlightAware ADS-B
Fri 07:13:44 PM 35.0510 -110.2520 260° West 416 479 36,000 71 Level FlightAware ADS-B
Fri 07:14:26 PM 35.0370 -110.3490 260° West 416 479 36,100  Climbing FlightAware ADS-B
Fri 07:15:05 PM 35.0250 -110.4340 260° West 414 476 36,000 -70 Descending FlightAware ADS-B
Fri 07:15:52 PM 35.0080 -110.5460 260° West 413 475 36,000  Level FlightAware ADS-B
Fri 07:16:30 PM 34.9950 -110.6340 260° West 413 475 36,000 78 Level FlightAware ADS-B
Fri 07:17:09 PM 34.9820 -110.7210 260° West 413 475 36,100 68 Climbing FlightAware ADS-B
Fri 07:17:58 PM 34.9650 -110.8340 260° West 412 474 36,100  Level FlightAware ADS-B
Fri 07:18:38 PM 34.9510 -110.9260 260° West 410 472 36,100 -75 Level FlightAware ADS-B
Fri 07:19:18 PM 34.9370 -111.0160 259° West 410 472 36,000  Descending FlightAware ADS-B
Fri 07:19:58 PM 34.9230 -111.1080 260° West 411 473 36,100  Climbing FlightAware ADS-B
Fri 07:20:58 PM 34.9030 -111.2430 260° West 409 471 36,000 -63 Descending FlightAware ADS-B
Fri 07:21:34 PM 34.8900 -111.3250 259° West 409 471 36,000  Level FlightAware ADS-B
Fri 07:22:20 PM 34.8740 -111.4290 259° West 411 473 36,000  Level FlightAware ADS-B
Fri 07:23:04 PM 34.8580 -111.5270 259° West 412 474 36,000 70 Level FlightAware ADS-B
Fri 07:23:46 PM 34.8430 -111.6260 260° West 413 475 36,100 70 Climbing FlightAware ADS-B
Fri 07:24:30 PM 34.8270 -111.7260 259° West 415 478 36,100 -75 Level FlightAware ADS-B
Fri 07:25:06 PM 34.8140 -111.8080 259° West 414 476 36,000 -75 Descending FlightAware ADS-B
Fri 07:25:50 PM 34.7980 -111.9070 259° West 414 476 36,000 71 Level FlightAware ADS-B
Fri 07:26:30 PM 34.7830 -112.0000 259° West 413 475 36,100 70 Climbing FlightAware ADS-B
Fri 07:27:16 PM 34.7660 -112.1050 259° West 414 476 36,100 -68 Level FlightAware ADS-B
Fri 07:27:58 PM 34.7510 -112.1990 259° West 411 473 36,000 -73 Descending FlightAware ADS-B
Fri 07:28:38 PM 34.7360 -112.2910 259° West 411 473 36,000 70 Level FlightAware ADS-B
Fri 07:29:24 PM 34.7190 -112.3940 259° West 409 471 36,100  Climbing FlightAware ADS-B
Fri 07:30:04 PM 34.7040 -112.4830 258° West 409 471 36,000 -73 Descending FlightAware ADS-B
Fri 07:30:46 PM 34.6880 -112.5780 258° West 408 470 36,000  Level FlightAware ADS-B
Fri 07:31:26 PM 34.6730 -112.6680 259° West 410 472 36,000  Level FlightAware ADS-B
Fri 07:32:04 PM 34.6590 -112.7540 259° West 409 471 36,000 71 Level FlightAware ADS-B
Fri 07:32:50 PM 34.6410 -112.8580 258° West 409 471 36,100  Climbing FlightAware ADS-B
Fri 07:33:34 PM 34.6250 -112.9560 259° West 410 472 36,000 -68 Descending FlightAware ADS-B
Fri 07:34:18 PM 34.6080 -113.0540 258° West 409 471 36,000  Level FlightAware ADS-B
Fri 07:34:58 PM 34.5930 -113.1440 259° West 408 470 36,000 79 Level FlightAware ADS-B
Fri 07:35:34 PM 34.5790 -113.2250 258° West 409 471 36,100 71 Climbing FlightAware ADS-B
Fri 07:36:22 PM 34.5600 -113.3340 258° West 408 470 36,100  Level FlightAware ADS-B
Fri 07:37:00 PM 34.5460 -113.4170 258° West 407 468 36,100 -72 Level FlightAware ADS-B
Fri 07:37:45 PM 34.5290 -113.5140 258° West 407 468 36,000 -67 Descending FlightAware ADS-B
Fri 07:38:30 PM 34.5110 -113.6170 258° West 405 466 36,000 71 Level FlightAware ADS-B
Fri 07:39:10 PM 34.4950 -113.7070 258° West 405 466 36,100 79 Climbing FlightAware ADS-B
Fri 07:39:46 PM 34.4810 -113.7870 258° West 405 466 36,100  Level FlightAware ADS-B
Fri 07:40:34 PM 34.4620 -113.8930 258° West 405 466 36,100 -67 Level FlightAware ADS-B
Fri 07:41:16 PM 34.4450 -113.9870 258° West 404 465 36,000 -75 Descending FlightAware ADS-B
Fri 07:41:54 PM 34.4300 -114.0700 258° West 404 465 36,000 76 Level FlightAware ADS-B
Fri 07:42:35 PM 34.4140 -114.1580 258° West 405 466 36,100 70 Climbing FlightAware ADS-B
Fri 07:43:20 PM 34.3960 -114.2580 258° West 407 468 36,100 -69 Level FlightAware ADS-B
Fri 07:44:02 PM 34.3780 -114.3550 257° West 407 468 36,000 -62 Descending FlightAware ADS-B
Fri 07:44:57 PM 34.3570 -114.4650 257° West 405 466 36,000 -65 Level FlightAware ADS-B
Fri 07:45:35 PM 34.3420 -114.5500 258° West 403 464 35,900 -152 Descending FlightAware ADS-B
Fri 07:46:16 PM 34.3280 -114.6220 257° West 403 464 35,800 -67 Descending FlightAware ADS-B
Fri 07:47:04 PM 34.3110 -114.7120 257° West 403 464 35,800  Level FlightAware ADS-B
Fri 07:48:04 PM 34.2900 -114.8240 257° West 403 464 35,800  Level FlightAware ADS-B
Fri 07:48:43 PM 34.2760 -114.8970 257° West 403 464 35,800  Level FlightAware ADS-B
Fri 07:49:29 PM 34.2590 -114.9830 257° West 403 464 35,800  Level FlightAware ADS-B
Fri 07:50:05 PM 34.2470 -115.0500 258° West 403 464 35,800 -3,750 Level FlightAware ADS-B
Fri 07:50:49 PM 34.2090 -115.2530 257° West 402 463 30,800 -3,852 Descending FlightAware ADS-B
Fri 07:51:26 PM 34.1940 -115.3260 256° West 402 463 30,600 -140 Descending FlightAware ADS-B
Fri 07:52:15 PM 34.1750 -115.4170 256° West 402 463 30,600  Level FlightAware ADS-B
Fri 07:52:51 PM 34.1610 -115.4840 256° West 402 463 30,600 -439 Level FlightAware ADS-B
Fri 07:53:37 PM 34.1380 -115.6190 258° West 401 461 30,000 -409 Descending FlightAware ADS-B
Fri 07:54:19 PM 34.1200 -115.7100 257° West 397 457 30,000 -146 Level FlightAware ADS-B
Fri 07:54:59 PM 34.1040 -115.7900 256° West 366 421 29,800 -1,694 Descending FlightAware ADS-B
Fri 07:55:44 PM 34.0850 -115.8830 256° West 379 436 27,600 -2,523 Descending FlightAware ADS-B
Fri 07:56:27 PM 34.0680 -115.9720 257° West 373 429 26,100 -2,024 Descending FlightAware ADS-B
Fri 07:57:07 PM 34.0520 -116.0520 256° West 369 425 24,800 -1,615 Descending FlightAware ADS-B
Fri 07:57:45 PM 34.0370 -116.1250 256° West 361 415 24,000 -494 Descending FlightAware ADS-B
Fri 07:58:32 PM 34.0200 -116.2070 256° West 357 411 24,100 -316 Climbing FlightAware ADS-B
Fri 07:59:20 PM 34.0010 -116.3030 257° West 372 428 23,500 -383 Descending FlightAware ADS-B
Fri 08:00:06 PM 33.9850 -116.3810 256° West 372 428 23,500 -2,562 Level FlightAware ADS-B
Fri 08:00:49 PM 33.9630 -116.4910 256° West 356 410 19,700 -2,788 Descending FlightAware ADS-B
Fri 08:01:45 PM 33.9430 -116.5870 256° West 350 403 18,900 -1,758 Descending FlightAware ADS-B
Fri 08:02:28 PM 33.9260 -116.6740 257° West 343 395 16,800 -2,276 Descending FlightAware ADS-B
Fri 08:03:12 PM 33.9090 -116.7570 256° West 336 387 15,600 -1,683 Descending FlightAware ADS-B
Fri 08:03:50 PM 33.8950 -116.8220 255° West 331 381 14,500 -1,184 Descending FlightAware ADS-B
Fri 08:04:28 PM 33.8830 -116.8920 258° West 330 380 14,100 -1,047 Descending FlightAware ADS-B
Fri 08:05:16 PM 33.8710 -116.9770 260° West 328 377 13,000 -1,435 Descending FlightAware ADS-B
Fri 08:06:00 PM 33.8590 -117.0590 260° West 318 366 11,900 -1,200 Descending FlightAware ADS-B
Fri 08:06:41 PM 33.8490 -117.1260 260° West 301 346 11,300 -988 Descending FlightAware ADS-B
Fri 08:07:25 PM 33.8390 -117.1960 260° West 290 334 10,500 -1,286 Descending FlightAware ADS-B
Fri 08:07:51 PM 33.8330 -117.2390 260° West 290 334 9,800 -1,500 Descending FlightAware ADS-B
Fri 08:08:21 PM 33.8260 -117.2870 260° West 290 334 9,100 -1,345 Descending FlightAware ADS-B
Fri 08:08:49 PM 33.8190 -117.3320 259° West 286 329 8,500 -1,200 Descending FlightAware ADS-B
Fri 08:09:11 PM 33.8140 -117.3660 260° West 282 325 8,100 -500 Descending FlightAware ADS-B
Fri 08:09:37 PM 33.8080 -117.4050 260° West 283 326 8,100  Level FlightAware ADS-B
Fri 08:10:10 PM 33.8000 -117.4560 259° West 280 322 8,100  Level FlightAware ADS-B
Fri 08:10:38 PM 33.7940 -117.4960 260° West 255 293 8,100  Level FlightAware ADS-B
Fri 08:11:00 PM 33.7900 -117.5270 261° West 239 275 8,100  Level FlightAware ADS-B
Fri 08:11:32 PM 33.7890 -117.5320 256° West 239 275 8,100  Level FlightAware ADS-B
Fri 08:11:49 PM 33.7830 -117.5690 259° West 239 275 8,100 -1,125 Level FlightAware ADS-B
Fri 08:12:20 PM 33.7720 -117.6290 258° West 232 267 7,200 -1,525 Descending FlightAware ADS-B
Fri 08:12:48 PM 33.7640 -117.6640 255° West 232 267 6,600 -1,200 Descending FlightAware ADS-B
Fri 08:13:00 PM 33.7600 -117.6790 252° West 232 267 6,400 -1,429 Descending FlightAware ADS-B
Fri 08:13:30 PM 33.7520 -117.7160 255° West 228 262 5,600 -1,714 Descending FlightAware ADS-B
Fri 08:13:42 PM 33.7480 -117.7300 251° West 226 260 5,200 -1,833 Descending FlightAware ADS-B
Fri 08:14:06 PM 33.7380 -117.7590 247° West 226 260 4,500 -1,222 Descending FlightAware ADS-B
Fri 08:14:36 PM 33.7250 -117.7920 245° Southwest 228 262 4,100 -621 Descending FlightAware ADS-B
Fri 08:15:04 PM 33.7130 -117.8250 246° West 228 262 3,900 -828 Descending FlightAware ADS-B
Fri 08:15:34 PM 33.7010 -117.8590 247° West 226 260 3,300 -828 Descending FlightAware ADS-B
Fri 08:16:02 PM 33.6990 -117.8920 266° West 206 237 3,100 -545 Descending FlightAware ADS-B
Fri 08:16:18 PM 33.6970 -117.9100 262° West 197 227 2,900 -833 Descending FlightAware ADS-B
Fri 08:16:38 PM 33.6960 -117.9310 267° West 190 219 2,600 -900 Descending FlightAware ADS-B
Fri 08:16:58 PM 33.6990 -117.9520 280° West 184 212 2,300 -960 Descending FlightAware ADS-B
Fri 08:17:28 PM 33.7040 -117.9810 282° West 173 199 1,800 -643 Descending FlightAware ADS-B
Fri 08:17:54 PM 33.7090 -118.0040 285° West 169 194 1,700 -111 Descending FlightAware ADS-B
Fri 08:18:22 PM 33.7170 -118.0280 292° West 170 196 1,700  Level FlightAware ADS-B
Fri 08:18:35 PM 33.7240 -118.0380 310° West 172 198 1,700  Level FlightAware ADS-B
Fri 08:19:03 PM 33.7390 -118.0570 314° West 171 197 1,700 -107 Level FlightAware ADS-B
Fri 08:19:31 PM 33.7550 -118.0760 315° West 166 191 1,600 -429 Descending FlightAware ADS-B
Fri 08:19:59 PM 33.7690 -118.0930 315° West 149 171 1,300 -732 Descending FlightAware ADS-B
Fri 08:20:53 PM 33.7950 -118.1240 315° West 151 174 600 -837 Descending FlightAware ADS-B
Fri 08:21:25 PM 33.8120 -118.1440 316° Northwest 150 173 100 -938 Descending FlightAware ADS-B
Fri 08:21:53 PM 33.8210 -118.1550 315° West 37 43 -214 Descending FlightAware ADS-B
Fri 08:22:22 PM 33.8240 -118.1590 312° West 37 43  Level FlightAware ADS-B
Fri 08:23:39 PM 33.8220 -118.1520 109° East 28 32  Level FlightAware ADS-B
Fri 08:24:07 PM 33.8220 -118.1490 90° East 15 17  Level FlightAware ADS-B
Fri 08:24:55 PM 33.8200 -118.1470 140° Southeast 32 37  Level FlightAware ADS-B

Login

Don't have an account? Register now (free) for customized features, flight alerts, and more!